Time;durP1;ratioP1;P1;durP2;ratioP2;P2;SDS_P1;SDS_P2;PMS_P1;PMS_P2;Temp;Humidity;BMP_temperature;BMP_pressure;BME280_temperature;BME280_humidity;BME280_pressure;Samples;Min_cycle;Max_cycle;Signal;HPM_P1;HPM_P2
2022/10/24 00:00:26;;;;;;;;;;;;;;;16.59;86.83;99979.16;1237706;24;663;-81
2022/10/24 00:01:17;;;;;;;;;;;;;;;16.60;87.11;99974.63;1237560;24;744;-82
2022/10/24 00:02:07;;;;;;;;;;;;;;;16.58;86.40;99976.63;1237692;24;626;-81
2022/10/24 00:02:58;;;;;;;;;;;;;;;16.57;87.22;99986.53;1237602;24;659;-81
2022/10/24 00:03:49;;;;;;;;;;;;;;;16.59;87.31;99981.00;1237568;23;642;-81
2022/10/24 00:04:39;;;;;;;;;;;;;;;16.59;87.52;99976.47;1237489;24;681;-82
2022/10/24 00:05:30;;;;;;;;;;;;;;;16.59;87.42;99981.84;1237569;24;630;-82
2022/10/24 00:06:20;;;;;;;;;;;;;;;16.60;86.46;99980.00;1237622;24;662;-82
2022/10/24 00:07:11;;;;;;;;;;;;;;;16.58;87.11;99968.56;1236745;24;650;-82
2022/10/24 00:08:01;;;;;;;;;;;;;;;16.59;86.50;99973.78;1237630;24;738;-81
2022/10/24 00:08:51;;;;;;;;;;;;;;;16.59;86.47;99967.56;1237620;24;667;-82
2022/10/24 00:09:42;;;;;;;;;;;;;;;16.59;87.27;99970.25;1237463;24;741;-82
2022/10/24 00:10:32;;;;;;;;;;;;;;;16.57;86.89;99967.72;1237620;23;678;-81
2022/10/24 00:11:23;;;;;;;;;;;;;;;16.58;86.68;99973.94;1237615;23;1885;-81
2022/10/24 00:12:13;;;;;;;;;;;;;;;16.58;87.21;99971.25;1242987;23;638;-82
2022/10/24 00:13:04;;;;;;;;;;;;;;;16.60;86.41;99963.84;1242346;23;678;-81
2022/10/24 00:13:54;;;;;;;;;;;;;;;16.60;86.54;99974.63;1236874;24;587;-83
2022/10/24 00:14:45;;;;;;;;;;;;;;;16.59;87.26;99965.72;1237545;24;623;-82
2022/10/24 00:15:35;;;;;;;;;;;;;;;16.60;87.07;99959.31;1237610;24;631;-82
2022/10/24 00:16:26;;;;;;;;;;;;;;;16.61;86.21;99954.78;1237542;24;619;-82
2022/10/24 00:17:16;;;;;;;;;;;;;;;16.61;86.59;99946.72;1243157;23;693;-82
2022/10/24 00:18:06;;;;;;;;;;;;;;;16.60;86.83;99959.31;1242191;23;642;-82
2022/10/24 00:18:57;;;;;;;;;;;;;;;16.60;87.29;99961.16;1237014;24;610;-83
2022/10/24 00:19:47;;;;;;;;;;;;;;;16.62;87.36;99951.09;1237657;24;623;-83
2022/10/24 00:20:38;;;;;;;;;;;;;;;16.61;86.72;99950.25;1237461;24;698;-82
2022/10/24 00:21:28;;;;;;;;;;;;;;;16.60;86.12;99950.41;1237610;24;809;-82
2022/10/24 00:22:19;;;;;;;;;;;;;;;16.60;87.32;99950.41;1237563;24;772;-82
2022/10/24 00:23:10;;;;;;;;;;;;;;;16.60;86.05;99943.19;1237618;24;659;-82
2022/10/24 00:24:01;;;;;;;;;;;;;;;16.61;86.26;99939.50;1236894;24;648;-83
2022/10/24 00:24:51;;;;;;;;;;;;;;;16.62;86.72;99945.72;1237053;24;674;-84
2022/10/24 00:25:42;;;;;;;;;;;;;;;16.62;87.10;99945.72;1237941;24;611;-83
2022/10/24 00:26:32;;;;;;;;;;;;;;;16.61;86.38;99944.03;1237688;24;635;-82
2022/10/24 00:27:23;;;;;;;;;;;;;;;16.62;86.04;99948.41;1237788;24;640;-83
2022/10/24 00:28:13;;;;;;;;;;;;;;;16.63;86.21;99942.06;1237898;24;658;-83
2022/10/24 00:29:04;;;;;;;;;;;;;;;16.62;86.49;99945.72;1237536;24;651;-82
2022/10/24 00:29:54;;;;;;;;;;;;;;;16.60;86.67;99948.56;1243143;23;883;-80
2022/10/24 00:30:45;;;;;;;;;;;;;;;16.59;86.59;99944.19;1242072;23;781;-80
2022/10/24 00:31:35;;;;;;;;;;;;;;;16.60;86.86;99943.19;1236996;24;1890;-81
2022/10/24 00:32:25;;;;;;;;;;;;;;;16.60;86.44;99948.56;1237774;24;651;-81
2022/10/24 00:33:16;;;;;;;;;;;;;;;16.61;86.15;99944.03;1237621;23;702;-81
2022/10/24 00:34:06;;;;;;;;;;;;;;;16.61;86.54;99944.03;1237726;24;611;-81
2022/10/24 00:34:57;;;;;;;;;;;;;;;16.61;86.86;99944.03;1237590;24;643;-81
2022/10/24 00:35:47;;;;;;;;;;;;;;;16.61;86.59;99944.03;1237631;24;686;-81
2022/10/24 00:36:38;;;;;;;;;;;;;;;16.61;86.85;99944.03;1243007;23;638;-81
2022/10/24 00:37:28;;;;;;;;;;;;;;;16.61;86.72;99941.34;1243046;23;729;-81
2022/10/24 00:38:18;;;;;;;;;;;;;;;16.60;86.42;99945.03;1237681;23;668;-82
2022/10/24 00:39:09;;;;;;;;;;;;;;;16.59;86.34;99943.34;1236971;24;757;-82
2022/10/24 00:39:59;;;;;;;;;;;;;;;16.61;86.92;99954.78;1237582;24;619;-81
2022/10/24 00:40:50;;;;;;;;;;;;;;;16.61;86.73;99954.78;1237653;24;635;-82
2022/10/24 00:41:43;;;;;;;;;;;;;;;16.60;86.85;99947.72;1237537;24;662;-81
2022/10/24 00:42:34;;;;;;;;;;;;;;;16.61;86.66;99941.34;1237740;23;643;-81
2022/10/24 00:43:24;;;;;;;;;;;;;;;16.59;86.94;99946.03;1237432;24;672;-82
2022/10/24 00:44:15;;;;;;;;;;;;;;;16.61;86.22;99941.34;1237686;24;659;-81
2022/10/24 00:45:05;;;;;;;;;;;;;;;16.61;86.24;99935.97;1237785;24;560;-84
2022/10/24 00:45:56;;;;;;;;;;;;;;;16.61;86.30;99938.66;1237725;23;548;-84
2022/10/24 00:46:46;;;;;;;;;;;;;;;16.62;85.77;99934.97;1238189;24;690;-84
2022/10/24 00:47:37;;;;;;;;;;;;;;;16.62;86.48;99933.13;1237962;24;655;-84
2022/10/24 00:48:27;;;;;;;;;;;;;;;16.62;85.86;99935.81;1238450;24;674;-84
2022/10/24 00:49:17;;;;;;;;;;;;;;;16.63;86.55;99934.00;1244431;23;655;-85
2022/10/24 00:50:08;;;;;;;;;;;;;;;16.64;85.85;99938.38;1243100;23;765;-85
2022/10/24 00:50:58;;;;;;;;;;;;;;;16.60;86.66;99939.66;1238392;23;724;-83
2022/10/24 00:51:49;;;;;;;;;;;;;;;16.62;86.78;99934.97;1237845;24;1893;-84
2022/10/24 00:52:39;;;;;;;;;;;;;;;16.58;86.34;99930.91;1237935;23;677;-84
2022/10/24 00:53:30;;;;;;;;;;;;;;;16.58;86.48;99933.59;1237190;24;682;-84
2022/10/24 00:54:20;;;;;;;;;;;;;;;16.60;86.28;99928.88;1237589;24;647;-84
2022/10/24 00:55:11;;;;;;;;;;;;;;;16.60;86.25;99942.34;1237673;24;627;-84
2022/10/24 00:56:01;;;;;;;;;;;;;;;16.60;86.15;99934.28;1237715;24;679;-85
2022/10/24 00:56:52;;;;;;;;;;;;;;;16.58;86.52;99928.22;1236975;24;616;-84
2022/10/24 00:57:42;;;;;;;;;;;;;;;16.59;86.23;99930.75;1237611;24;741;-84
2022/10/24 00:58:32;;;;;;;;;;;;;;;16.59;86.13;99930.75;1237560;24;643;-83
2022/10/24 00:59:23;;;;;;;;;;;;;;;16.61;85.84;99938.66;1237522;24;635;-82
2022/10/24 01:00:14;;;;;;;;;;;;;;;16.61;86.19;99938.66;1242938;23;630;-83
2022/10/24 01:01:04;;;;;;;;;;;;;;;16.61;86.04;99930.59;1237193;24;651;-83
2022/10/24 01:01:55;;;;;;;;;;;;;;;16.63;85.63;99934.00;1236331;24;658;-84
2022/10/24 01:02:46;;;;;;;;;;;;;;;16.64;86.58;99935.69;1236284;24;666;-83
2022/10/24 01:03:36;;;;;;;;;;;;;;;16.62;86.43;99932.28;1237164;23;685;-83
2022/10/24 01:04:26;;;;;;;;;;;;;;;16.63;86.18;99942.06;1237447;23;701;-83
2022/10/24 01:05:17;;;;;;;;;;;;;;;16.63;85.61;99931.28;1242969;23;634;-83
2022/10/24 01:06:07;;;;;;;;;;;;;;;16.63;85.66;99928.59;1242347;23;686;-83
2022/10/24 01:06:58;;;;;;;;;;;;;;;16.61;86.29;99923.34;1236756;24;663;-84
2022/10/24 01:07:49;;;;;;;;;;;;;;;16.62;86.63;99926.88;1243063;23;643;-85
2022/10/24 01:08:39;;;;;;;;;;;;;;;16.63;85.93;99934.00;1237099;24;643;-85
2022/10/24 01:09:30;;;;;;;;;;;;;;;16.61;86.13;99923.34;1236400;24;670;-85
2022/10/24 01:10:20;;;;;;;;;;;;;;;16.61;85.73;99930.59;1237085;23;658;-84
2022/10/24 01:11:11;;;;;;;;;;;;;;;16.62;86.62;99934.97;1237184;23;662;-84
2022/10/24 01:12:01;;;;;;;;;;;;;;;16.61;85.59;99922.50;1237170;23;671;-85
2022/10/24 01:12:52;;;;;;;;;;;;;;;16.60;86.21;99927.03;1236763;24;631;-85
2022/10/24 01:13:42;;;;;;;;;;;;;;;16.61;85.88;99927.88;1237615;24;659;-85
2022/10/24 01:14:33;;;;;;;;;;;;;;;16.61;86.04;99933.28;1237517;24;627;-84
2022/10/24 01:15:23;;;;;;;;;;;;;;;16.60;85.75;99926.19;1237370;24;706;-83
2022/10/24 01:16:14;;;;;;;;;;;;;;;16.59;86.08;99921.81;1237677;24;631;-84
2022/10/24 01:17:04;;;;;;;;;;;;;;;16.60;86.21;99926.19;1237378;24;694;-86
2022/10/24 01:17:55;;;;;;;;;;;;;;;16.56;85.49;99922.97;1237633;24;655;-85
2022/10/24 01:18:45;;;;;;;;;;;;;;;16.57;86.14;99924.66;1242975;23;682;-84
2022/10/24 01:19:36;;;;;;;;;;;;;;;16.58;85.60;99922.81;1242086;23;608;-84
2022/10/24 01:20:26;;;;;;;;;;;;;;;16.51;85.96;99917.22;1237055;24;666;-83
2022/10/24 01:21:17;;;;;;;;;;;;;;;16.51;85.68;99916.38;1237404;24;702;-83
2022/10/24 01:22:07;;;;;;;;;;;;;;;16.53;86.52;99915.22;1243067;23;733;-85
2022/10/24 01:22:57;;;;;;;;;;;;;;;16.56;86.11;99908.69;1241580;23;696;-84
2022/10/24 01:23:48;;;;;;;;;;;;;;;16.57;86.56;99916.59;1236798;24;714;-86
2022/10/24 01:24:38;;;;;;;;;;;;;;;16.57;85.57;99908.53;1237528;24;651;-84
2022/10/24 01:25:29;;;;;;;;;;;;;;;16.58;85.90;99912.06;1243042;23;661;-85
2022/10/24 01:26:19;;;;;;;;;;;;;;;16.56;86.33;99909.53;1242190;23;611;-84
2022/10/24 01:27:10;;;;;;;;;;;;;;;16.57;85.57;99913.06;1236860;24;642;-84
2022/10/24 01:28:00;;;;;;;;;;;;;;;16.54;85.30;99911.53;1237399;24;694;-83
2022/10/24 01:28:51;;;;;;;;;;;;;;;16.56;86.24;99911.38;1237007;24;639;-85
2022/10/24 01:29:41;;;;;;;;;;;;;;;16.57;86.12;99908.53;1237425;24;675;-85
2022/10/24 01:30:32;;;;;;;;;;;;;;;16.59;86.18;99909.22;1237569;24;879;-83
2022/10/24 01:31:22;;;;;;;;;;;;;;;16.59;85.40;99913.75;1242981;23;677;-85
2022/10/24 01:32:13;;;;;;;;;;;;;;;16.60;85.23;99905.53;1237070;24;670;-84
2022/10/24 01:33:03;;;;;;;;;;;;;;;16.58;85.52;99912.06;1236611;24;638;-84
2022/10/24 01:33:54;;;;;;;;;;;;;;;16.56;85.47;99912.22;1236178;24;611;-84
2022/10/24 01:34:44;;;;;;;;;;;;;;;16.53;85.43;99919.75;1237112;23;627;-83
2022/10/24 01:35:35;;;;;;;;;;;;;;;16.55;85.91;99915.91;1237065;23;631;-84
2022/10/24 01:36:26;;;;;;;;;;;;;;;16.56;85.63;99912.22;1237016;24;680;-84
2022/10/24 01:37:16;;;;;;;;;;;;;;;16.55;85.63;99915.91;1235866;24;717;-84
2022/10/24 01:38:07;;;;;;;;;;;;;;;16.55;85.62;99907.84;1236500;24;635;-83
2022/10/24 01:38:57;;;;;;;;;;;;;;;16.55;86.21;99902.47;1237402;23;689;-84
2022/10/24 01:39:47;;;;;;;;;;;;;;;16.54;85.38;99905.31;1237435;24;674;-85
2022/10/24 01:40:38;;;;;;;;;;;;;;;16.54;85.49;99905.31;1237394;24;627;-84
2022/10/24 01:41:28;;;;;;;;;;;;;;;16.52;85.81;99902.78;1237518;24;718;-82
2022/10/24 01:42:19;;;;;;;;;;;;;;;16.53;85.46;99909.84;1242912;23;650;-83
2022/10/24 01:43:09;;;;;;;;;;;;;;;16.51;84.86;99908.31;1237047;24;682;-83
2022/10/24 01:44:01;;;;;;;;;;;;;;;16.52;85.43;99899.25;1237229;24;615;-83
2022/10/24 01:44:51;;;;;;;;;;;;;;;16.50;85.31;99899.41;1230460;24;686;-84
2022/10/24 01:45:42;;;;;;;;;;;;;;;16.53;86.07;99898.25;1237971;23;635;-84
2022/10/24 01:46:32;;;;;;;;;;;;;;;16.51;85.75;99897.56;1237236;24;686;-84
2022/10/24 01:47:23;;;;;;;;;;;;;;;16.55;85.22;99897.09;1237342;24;622;-85
2022/10/24 01:48:13;;;;;;;;;;;;;;;16.55;84.32;99901.63;1242979;23;647;-84
2022/10/24 01:49:04;;;;;;;;;;;;;;;16.58;84.79;99896.78;1242049;23;623;-85
2022/10/24 01:49:54;;;;;;;;;;;;;;;16.58;85.42;99902.16;1237570;23;658;-84
2022/10/24 01:50:45;;;;;;;;;;;;;;;16.56;85.43;99896.09;1242768;23;804;-84
2022/10/24 01:51:35;;;;;;;;;;;;;;;16.57;85.37;99891.56;1242129;23;1897;-84
2022/10/24 01:52:25;;;;;;;;;;;;;;;16.58;85.15;99898.63;1236696;24;627;-85
2022/10/24 01:53:16;;;;;;;;;;;;;;;16.57;85.87;99891.56;1235948;24;642;-84
2022/10/24 01:54:06;;;;;;;;;;;;;;;16.58;85.61;99888.69;1237519;24;666;-85
2022/10/24 01:54:57;;;;;;;;;;;;;;;16.58;85.64;99890.53;1237098;24;627;-84
2022/10/24 01:55:47;;;;;;;;;;;;;;;16.57;85.55;99883.47;1242846;23;693;-84
2022/10/24 01:56:38;;;;;;;;;;;;;;;16.58;85.38;99885.16;1242186;23;934;-84
2022/10/24 01:57:28;;;;;;;;;;;;;;;16.56;85.15;99888.00;1236827;24;674;-84
2022/10/24 01:58:19;;;;;;;;;;;;;;;16.57;85.37;99884.31;1237617;24;643;-84
2022/10/24 01:59:09;;;;;;;;;;;;;;;16.58;85.33;99874.41;1243099;23;725;-83
2022/10/24 02:00:00;;;;;;;;;;;;;;;16.57;84.74;99892.41;1242788;23;628;-84
2022/10/24 02:00:50;;;;;;;;;;;;;;;16.57;85.82;99880.78;1237524;23;657;-83
2022/10/24 02:01:41;;;;;;;;;;;;;;;16.55;85.62;99885.50;1237301;24;756;-83
2022/10/24 02:02:31;;;;;;;;;;;;;;;16.56;85.89;99888.00;1237544;24;674;-84
2022/10/24 02:03:21;;;;;;;;;;;;;;;16.53;84.57;99885.66;1237149;24;604;-84
2022/10/24 02:04:12;;;;;;;;;;;;;;;16.49;83.80;99878.06;1237546;23;666;-85
2022/10/24 02:05:02;;;;;;;;;;;;;;;16.52;84.31;99885.81;1243002;23;654;-85
2022/10/24 02:05:53;;;;;;;;;;;;;;;16.51;85.29;99874.19;1242913;23;666;-85
2022/10/24 02:06:43;;;;;;;;;;;;;;;16.48;85.18;99877.22;1236967;24;701;-83
2022/10/24 02:07:34;;;;;;;;;;;;;;;16.51;85.27;99878.72;1237311;24;631;-83
2022/10/24 02:08:24;;;;;;;;;;;;;;;16.53;84.64;99869.50;1237296;24;693;-85
2022/10/24 02:09:15;;;;;;;;;;;;;;;16.55;85.55;99872.03;1237465;24;658;-84
2022/10/24 02:10:05;;;;;;;;;;;;;;;16.56;85.08;99871.88;1237399;24;638;-84
2022/10/24 02:10:55;;;;;;;;;;;;;;;16.58;85.64;99872.56;1236771;24;647;-85
2022/10/24 02:11:46;;;;;;;;;;;;;;;16.59;85.16;99868.88;1237455;24;1862;-84
2022/10/24 02:12:36;;;;;;;;;;;;;;;16.60;85.45;99875.09;1237466;24;566;-84
2022/10/24 02:13:27;;;;;;;;;;;;;;;16.60;84.75;99875.09;1237557;23;622;-85
2022/10/24 02:14:17;;;;;;;;;;;;;;;16.59;85.40;99865.34;1237639;24;701;-84
2022/10/24 02:15:08;;;;;;;;;;;;;;;16.52;84.93;99861.59;1242886;23;662;-83
2022/10/24 02:15:58;;;;;;;;;;;;;;;16.52;85.57;99866.97;1237064;24;633;-84
2022/10/24 02:16:49;;;;;;;;;;;;;;;16.55;85.02;99861.28;1236105;24;709;-84
2022/10/24 02:17:39;;;;;;;;;;;;;;;16.54;84.80;99864.97;1236485;24;647;-83
2022/10/24 02:18:29;;;;;;;;;;;;;;;16.51;85.25;99858.06;1237317;24;713;-82
2022/10/24 02:19:20;;;;;;;;;;;;;;;16.54;84.73;99859.59;1242853;23;651;-85
2022/10/24 02:20:10;;;;;;;;;;;;;;;16.56;85.07;99861.13;1242812;23;642;-83
2022/10/24 02:21:01;;;;;;;;;;;;;;;16.56;84.89;99853.06;1236651;24;683;-84
2022/10/24 02:21:52;;;;;;;;;;;;;;;16.56;84.89;99858.44;1237421;23;657;-83
2022/10/24 02:22:42;;;;;;;;;;;;;;;16.55;85.43;99859.44;1236541;24;637;-83
2022/10/24 02:23:32;;;;;;;;;;;;;;;16.56;84.99;99860.28;1237310;24;834;-84
2022/10/24 02:24:23;;;;;;;;;;;;;;;16.55;85.55;99858.59;1237374;24;675;-84
2022/10/24 02:25:13;;;;;;;;;;;;;;;16.54;84.35;99862.28;1237422;24;768;-85
2022/10/24 02:26:04;;;;;;;;;;;;;;;16.54;84.79;99862.28;1237451;23;678;-85
2022/10/24 02:26:54;;;;;;;;;;;;;;;16.56;85.08;99860.28;1237445;24;682;-84
2022/10/24 02:27:45;;;;;;;;;;;;;;;16.57;84.95;99861.97;1237451;24;714;-84
2022/10/24 02:28:35;;;;;;;;;;;;;;;16.57;85.08;99859.28;1242790;23;653;-84
2022/10/24 02:29:26;;;;;;;;;;;;;;;16.56;84.53;99860.28;1241985;23;615;-83
2022/10/24 02:30:17;;;;;;;;;;;;;;;16.57;85.12;99860.13;1237595;23;631;-84
2022/10/24 02:31:07;;;;;;;;;;;;;;;16.58;85.54;99864.50;1236753;24;658;-83
2022/10/24 02:31:58;;;;;;;;;;;;;;;16.58;85.40;99858.28;1237410;24;1932;-83
2022/10/24 02:32:48;;;;;;;;;;;;;;;16.58;85.33;99856.41;1237300;24;702;-84
2022/10/24 02:33:38;;;;;;;;;;;;;;;16.58;85.41;99856.41;1237234;24;679;-83
2022/10/24 02:34:29;;;;;;;;;;;;;;;16.57;85.43;99860.13;1237445;24;647;-83
2022/10/24 02:35:19;;;;;;;;;;;;;;;16.55;85.39;99855.91;1236628;24;702;-82
2022/10/24 02:36:10;;;;;;;;;;;;;;;16.54;83.88;99854.22;1237461;24;663;-82
2022/10/24 02:37:00;;;;;;;;;;;;;;;16.55;84.72;99848.69;1237248;23;1217;-83
2022/10/24 02:37:51;;;;;;;;;;;;;;;16.53;85.11;99855.22;1237288;24;674;-83
2022/10/24 02:38:41;;;;;;;;;;;;;;;16.53;84.86;99857.91;1237293;24;681;-82
2022/10/24 02:39:32;;;;;;;;;;;;;;;16.56;84.88;99854.91;1237332;24;619;-83
2022/10/24 02:40:22;;;;;;;;;;;;;;;16.54;84.44;99857.75;1237234;24;627;-83
2022/10/24 02:41:12;;;;;;;;;;;;;;;16.49;83.85;99859.22;1237534;24;653;-82
2022/10/24 02:42:03;;;;;;;;;;;;;;;16.49;84.24;99864.59;1237277;24;674;-82
2022/10/24 02:42:53;;;;;;;;;;;;;;;16.46;84.95;99864.94;1237437;24;652;-82
2022/10/24 02:43:44;;;;;;;;;;;;;;;16.48;84.31;99860.25;1237227;24;627;-83
2022/10/24 02:44:34;;;;;;;;;;;;;;;16.47;84.82;99864.78;1237471;23;662;-83
2022/10/24 02:45:25;;;;;;;;;;;;;;;16.51;84.40;99859.91;1237459;24;651;-83
2022/10/24 02:46:15;;;;;;;;;;;;;;;16.51;85.15;99862.59;1237315;24;841;-83
2022/10/24 02:47:05;;;;;;;;;;;;;;;16.46;84.50;99860.41;1237431;24;635;-83
2022/10/24 02:47:56;;;;;;;;;;;;;;;16.48;84.49;99861.06;1237349;24;644;-83
2022/10/24 02:48:46;;;;;;;;;;;;;;;16.49;84.07;99862.75;1237473;24;686;-83
2022/10/24 02:49:37;;;;;;;;;;;;;;;16.47;84.82;99853.19;1236953;24;665;-83
2022/10/24 02:50:27;;;;;;;;;;;;;;;16.44;84.23;99857.03;1237383;24;655;-83
2022/10/24 02:51:18;;;;;;;;;;;;;;;16.46;84.42;99863.09;1237448;24;571;-82
2022/10/24 02:52:08;;;;;;;;;;;;;;;16.46;84.24;99855.03;1237611;24;817;-82
2022/10/24 02:52:59;;;;;;;;;;;;;;;16.45;84.31;99852.50;1242814;23;646;-82
2022/10/24 02:53:49;;;;;;;;;;;;;;;16.40;83.22;99854.84;1242227;23;639;-81
2022/10/24 02:54:40;;;;;;;;;;;;;;;16.42;84.09;99858.22;1237028;24;694;-82
2022/10/24 02:55:30;;;;;;;;;;;;;;;16.41;83.92;99857.38;1230458;24;675;-81
2022/10/24 02:56:21;;;;;;;;;;;;;;;16.44;84.79;99851.66;1236981;23;673;-83
2022/10/24 02:57:13;;;;;;;;;;;;;;;16.46;84.10;99864.94;1237897;23;626;-84
2022/10/24 02:58:04;;;;;;;;;;;;;;;16.48;84.60;99862.94;1236759;24;634;-82
2022/10/24 02:58:54;;;;;;;;;;;;;;;16.47;83.93;99862.09;1237315;24;654;-83
2022/10/24 02:59:45;;;;;;;;;;;;;;;16.51;84.79;99851.84;1237355;23;662;-83
2022/10/24 03:00:35;;;;;;;;;;;;;;;16.52;84.32;99853.53;1242912;23;635;-83
2022/10/24 03:01:26;;;;;;;;;;;;;;;16.50;84.79;99852.84;1241910;23;647;-83
2022/10/24 03:02:16;;;;;;;;;;;;;;;16.51;83.94;99851.84;1236841;24;650;-83
2022/10/24 03:03:07;;;;;;;;;;;;;;;16.49;83.88;99853.84;1237374;23;732;-84
2022/10/24 03:03:57;;;;;;;;;;;;;;;16.44;83.80;99859.72;1236700;24;639;-83
2022/10/24 03:04:47;;;;;;;;;;;;;;;16.40;83.73;99857.53;1237206;24;627;-83
2022/10/24 03:05:38;;;;;;;;;;;;;;;16.39;83.82;99853.13;1236422;24;674;-82
2022/10/24 03:06:28;;;;;;;;;;;;;;;16.43;84.51;99851.81;1237317;24;773;-84
2022/10/24 03:07:25;;;;;;;;;;;;;;;16.45;84.52;99852.50;1237767;23;651;-82
2022/10/24 03:08:15;;;;;;;;;;;;;;;16.50;83.83;99855.53;1237873;24;694;-82
2022/10/24 03:09:06;;;;;;;;;;;;;;;16.51;84.39;99860.75;1237740;24;612;-82
2022/10/24 03:09:56;;;;;;;;;;;;;;;16.50;84.71;99853.69;1237990;24;705;-82
2022/10/24 03:10:47;;;;;;;;;;;;;;;16.45;82.77;99852.50;1243581;23;690;-82
2022/10/24 03:11:37;;;;;;;;;;;;;;;16.47;84.44;99855.88;1243316;23;1931;-82
2022/10/24 03:12:28;;;;;;;;;;;;;;;16.45;83.49;99855.19;1237937;23;824;-82
2022/10/24 03:13:18;;;;;;;;;;;;;;;16.44;83.16;99850.81;1237742;24;698;-83
2022/10/24 03:14:08;;;;;;;;;;;;;;;16.43;83.14;99851.81;1237132;24;713;-82
2022/10/24 03:14:59;;;;;;;;;;;;;;;16.40;83.34;99854.84;1243232;23;642;-82
2022/10/24 03:15:49;;;;;;;;;;;;;;;16.42;84.41;99850.13;1242556;23;675;-82
2022/10/24 03:16:40;;;;;;;;;;;;;;;16.44;83.74;99856.19;1237324;24;611;-82
2022/10/24 03:17:30;;;;;;;;;;;;;;;16.47;84.53;99855.88;1236543;24;662;-82
2022/10/24 03:18:21;;;;;;;;;;;;;;;16.48;84.41;99852.19;1236780;24;631;-81
2022/10/24 03:19:11;;;;;;;;;;;;;;;16.50;84.58;99850.16;1237623;24;623;-81
2022/10/24 03:20:02;;;;;;;;;;;;;;;16.49;84.27;99856.53;1237666;23;638;-82
2022/10/24 03:20:52;;;;;;;;;;;;;;;16.43;84.54;99857.19;1236060;24;663;-80
2022/10/24 03:21:43;;;;;;;;;;;;;;;16.41;83.47;99856.50;1237003;24;639;-80
2022/10/24 03:22:33;;;;;;;;;;;;;;;16.44;84.09;99845.44;1237714;24;682;-81
2022/10/24 03:23:27;;;;;;;;;;;;;;;16.44;84.20;99850.81;1237695;24;881;-81
2022/10/24 03:24:17;;;;;;;;;;;;;;;16.35;83.57;99849.09;1243214;23;701;-81
2022/10/24 03:25:10;;;;;;;;;;;;;;;16.38;83.31;99857.69;1242256;23;687;-81
2022/10/24 03:26:00;;;;;;;;;;;;;;;16.37;83.52;99855.16;1236925;24;702;-81
2022/10/24 03:26:51;;;;;;;;;;;;;;;16.38;83.58;99848.78;1237689;23;646;-82
2022/10/24 03:27:43;;;;;;;;;;;;;;;16.37;82.71;99857.84;1237642;24;717;-81
2022/10/24 03:28:34;;;;;;;;;;;;;;;16.33;83.24;99842.03;1237767;23;674;-81
2022/10/24 03:29:24;;;;;;;;;;;;;;;16.36;83.82;99851.63;1237716;24;701;-82
2022/10/24 03:30:15;;;;;;;;;;;;;;;16.41;83.51;99853.81;1243282;23;678;-82
2022/10/24 03:31:05;;;;;;;;;;;;;;;16.37;83.81;99847.94;1242399;23;682;-82
2022/10/24 03:31:56;;;;;;;;;;;;;;;16.39;82.76;99848.59;1237654;23;1901;-81
2022/10/24 03:32:54;;;;;;;;;;;;;;;16.42;83.14;99850.97;1237772;24;722;-83
2022/10/24 03:33:44;;;;;;;;;;;;;;;16.44;84.08;99851.66;1237789;23;829;-83
2022/10/24 03:34:35;;;;;;;;;;;;;;;16.42;83.56;99850.13;1237735;24;651;-81
2022/10/24 03:35:25;;;;;;;;;;;;;;;16.41;83.36;99854.66;1243059;23;693;-82
2022/10/24 03:36:16;;;;;;;;;;;;;;;16.38;83.07;99851.47;1237389;24;697;-81
2022/10/24 03:37:06;;;;;;;;;;;;;;;16.38;83.68;99855.00;1236411;24;1114;-82
2022/10/24 03:37:57;;;;;;;;;;;;;;;16.40;83.66;99854.84;1236898;24;616;-82
2022/10/24 03:38:48;;;;;;;;;;;;;;;16.34;82.54;99856.31;1237858;23;630;-82
2022/10/24 03:39:38;;;;;;;;;;;;;;;16.38;83.12;99846.06;1243183;23;623;-82
2022/10/24 03:40:29;;;;;;;;;;;;;;;16.41;84.14;99862.75;1237425;24;690;-82
2022/10/24 03:41:19;;;;;;;;;;;;;;;16.28;82.36;99857.81;1236272;24;611;-82
2022/10/24 03:42:09;;;;;;;;;;;;;;;16.33;83.14;99866.22;1236968;24;749;-83
2022/10/24 03:43:00;;;;;;;;;;;;;;;16.34;82.94;99856.31;1237716;24;603;-83
2022/10/24 03:43:50;;;;;;;;;;;;;;;16.28;83.04;99855.13;1237838;24;724;-85
2022/10/24 03:44:41;;;;;;;;;;;;;;;16.25;82.92;99852.75;1237749;24;675;-83
2022/10/24 03:45:31;;;;;;;;;;;;;;;16.24;82.29;99851.06;1237741;24;622;-85
2022/10/24 03:46:22;;;;;;;;;;;;;;;16.26;82.60;99854.44;1237753;24;649;-84
2022/10/24 03:47:12;;;;;;;;;;;;;;;16.25;82.08;99855.44;1243125;23;622;-83
2022/10/24 03:48:03;;;;;;;;;;;;;;;16.27;82.58;99858.81;1243069;23;677;-84
2022/10/24 03:48:53;;;;;;;;;;;;;;;16.23;82.40;99865.50;1237446;24;618;-84
2022/10/24 03:49:44;;;;;;;;;;;;;;;16.24;82.22;99863.66;1236464;24;638;-84
2022/10/24 03:50:34;;;;;;;;;;;;;;;16.24;82.66;99860.97;1236782;24;607;-84
2022/10/24 03:51:24;;;;;;;;;;;;;;;16.27;82.17;99856.13;1237777;24;685;-84
2022/10/24 03:52:15;;;;;;;;;;;;;;;16.25;81.94;99855.44;1243105;23;902;-83
2022/10/24 03:53:05;;;;;;;;;;;;;;;16.21;82.30;99862.13;1242536;23;631;-82
2022/10/24 03:53:56;;;;;;;;;;;;;;;16.24;82.54;99853.75;1237222;24;624;-84
2022/10/24 03:54:46;;;;;;;;;;;;;;;16.16;81.58;99845.63;1237407;24;674;-83
2022/10/24 03:55:37;;;;;;;;;;;;;;;16.12;81.18;99852.31;1236806;24;650;-83
2022/10/24 03:56:28;;;;;;;;;;;;;;;16.15;81.91;99853.84;1237154;24;650;-82
2022/10/24 03:57:18;;;;;;;;;;;;;;;16.13;81.76;99850.47;1237760;23;674;-83
2022/10/24 03:58:08;;;;;;;;;;;;;;;16.16;82.00;99853.69;1237666;24;686;-84
2022/10/24 03:58:59;;;;;;;;;;;;;;;16.16;81.73;99852.84;1237638;24;627;-83
2022/10/24 03:59:49;;;;;;;;;;;;;;;16.13;82.03;99848.63;1237655;24;638;-82
2022/10/24 04:00:41;;;;;;;;;;;;;;;16.16;82.33;99853.69;1237501;24;634;-84
2022/10/24 04:01:31;;;;;;;;;;;;;;;16.19;82.02;99853.38;1237786;23;693;-84
2022/10/24 04:02:22;;;;;;;;;;;;;;;16.21;81.51;99850.53;1242315;23;748;-84
2022/10/24 04:03:12;;;;;;;;;;;;;;;16.20;81.53;99849.69;1242352;23;646;-84
2022/10/24 04:04:03;;;;;;;;;;;;;;;16.22;82.14;99846.84;1237212;24;671;-84
2022/10/24 04:04:53;;;;;;;;;;;;;;;16.18;81.11;99854.38;1237649;23;622;-84
2022/10/24 04:05:43;;;;;;;;;;;;;;;16.17;81.17;99844.63;1237636;24;666;-84
2022/10/24 04:06:34;;;;;;;;;;;;;;;16.20;81.64;99851.53;1237548;24;720;-82
2022/10/24 04:07:24;;;;;;;;;;;;;;;16.11;80.49;99845.28;1237634;24;678;-81
2022/10/24 04:08:15;;;;;;;;;;;;;;;16.16;81.38;99852.84;1237608;24;861;-84
2022/10/24 04:09:05;;;;;;;;;;;;;;;16.14;81.23;99839.56;1237593;24;662;-83
2022/10/24 04:09:56;;;;;;;;;;;;;;;16.14;80.91;99855.69;1243148;23;748;-83
2022/10/24 04:10:46;;;;;;;;;;;;;;;16.16;81.18;99850.16;1242317;23;698;-83
2022/10/24 04:11:37;;;;;;;;;;;;;;;16.20;81.26;99855.06;1236758;24;1923;-83
2022/10/24 04:12:27;;;;;;;;;;;;;;;16.20;80.62;99848.84;1237734;24;623;-82
2022/10/24 04:13:18;;;;;;;;;;;;;;;16.15;81.22;99843.94;1237572;24;670;-82
2022/10/24 04:14:08;;;;;;;;;;;;;;;16.18;81.50;99851.69;1237624;24;627;-82
2022/10/24 04:14:59;;;;;;;;;;;;;;;16.15;81.35;99851.16;1237460;24;792;-82
2022/10/24 04:15:49;;;;;;;;;;;;;;;16.16;81.26;99851.00;1237727;23;666;-81
2022/10/24 04:16:40;;;;;;;;;;;;;;;16.22;81.31;99852.22;1237062;24;693;-82
2022/10/24 04:17:30;;;;;;;;;;;;;;;16.21;80.69;99848.69;1237540;23;674;-81
2022/10/24 04:18:20;;;;;;;;;;;;;;;16.20;81.31;99849.69;1242802;23;697;-82
2022/10/24 04:19:11;;;;;;;;;;;;;;;16.20;80.43;99846.16;1242064;23;674;-82
2022/10/24 04:20:01;;;;;;;;;;;;;;;16.18;80.35;99848.16;1237173;24;784;-81
2022/10/24 04:20:52;;;;;;;;;;;;;;;16.12;81.07;99852.31;1236288;24;614;-81
2022/10/24 04:21:42;;;;;;;;;;;;;;;16.05;78.66;99845.91;1236202;24;639;-82
2022/10/24 04:22:33;;;;;;;;;;;;;;;16.07;80.40;99846.59;1237244;23;631;-82
2022/10/24 04:23:24;;;;;;;;;;;;;;;16.08;80.49;99844.75;1237654;24;631;-83
2022/10/24 04:24:14;;;;;;;;;;;;;;;16.06;80.71;99839.53;1243027;23;662;-82
2022/10/24 04:25:05;;;;;;;;;;;;;;;16.05;80.80;99843.22;1237215;24;670;-81
2022/10/24 04:25:55;;;;;;;;;;;;;;;16.10;81.05;99848.13;1236399;24;664;-84
2022/10/24 04:26:46;;;;;;;;;;;;;;;16.15;81.54;99840.41;1236774;24;623;-83
2022/10/24 04:27:39;;;;;;;;;;;;;;;16.13;80.76;99842.41;1243127;23;611;-84
2022/10/24 04:28:29;;;;;;;;;;;;;;;16.13;80.39;99845.09;1242402;23;717;-84
2022/10/24 04:29:20;;;;;;;;;;;;;;;16.14;81.49;99836.88;1236763;24;638;-84
2022/10/24 04:30:10;;;;;;;;;;;;;;;16.18;82.00;99835.56;1243094;23;681;-84